sensor_id;sensor_type;location;lat;lon;timestamp;pressure;altitude;pressure_sealevel;temperature;humidity
17260;BME280;8746;49.230;9.220;2023-03-04T00:00:51;100583.13;;;-1.20;95.20
17260;BME280;8746;49.230;9.220;2023-03-04T00:03:16;100583.06;;;-1.23;95.27
17260;BME280;8746;49.230;9.220;2023-03-04T00:05:42;100596.81;;;-1.27;95.53
17260;BME280;8746;49.230;9.220;2023-03-04T00:08:07;100594.03;;;-1.38;97.86
17260;BME280;8746;49.230;9.220;2023-03-04T00:10:32;100593.91;;;-1.44;98.78
17260;BME280;8746;49.230;9.220;2023-03-04T00:12:58;100596.41;;;-1.49;99.83
17260;BME280;8746;49.230;9.220;2023-03-04T00:15:23;100596.41;;;-1.49;99.91
17260;BME280;8746;49.230;9.220;2023-03-04T00:17:48;100593.00;;;-1.46;99.70
17260;BME280;8746;49.230;9.220;2023-03-04T00:20:14;100596.38;;;-1.50;100.00
17260;BME280;8746;49.230;9.220;2023-03-04T00:22:39;100603.91;;;-1.61;100.00
17260;BME280;8746;49.230;9.220;2023-03-04T00:25:05;100597.94;;;-1.58;100.00
17260;BME280;8746;49.230;9.220;2023-03-04T00:27:30;100599.69;;;-1.56;99.84
17260;BME280;8746;49.230;9.220;2023-03-04T00:29:56;100604.84;;;-1.59;99.86
17260;BME280;8746;49.230;9.220;2023-03-04T00:32:21;100606.63;;;-1.55;99.42
17260;BME280;8746;49.230;9.220;2023-03-04T00:34:46;100598.03;;;-1.54;97.86
17260;BME280;8746;49.230;9.220;2023-03-04T00:37:12;100597.00;;;-1.61;98.17
17260;BME280;8746;49.230;9.220;2023-03-04T00:39:37;100595.31;;;-1.60;98.36
17260;BME280;8746;49.230;9.220;2023-03-04T00:42:03;100600.38;;;-1.66;97.49
17260;BME280;8746;49.230;9.220;2023-03-04T00:44:28;100596.06;;;-1.66;97.87
17260;BME280;8746;49.230;9.220;2023-03-04T00:46:53;100597.78;;;-1.66;97.70
17260;BME280;8746;49.230;9.220;2023-03-04T00:49:19;100597.78;;;-1.66;98.20
17260;BME280;8746;49.230;9.220;2023-03-04T00:51:44;100595.31;;;-1.60;98.28
17260;BME280;8746;49.230;9.220;2023-03-04T00:54:09;100586.66;;;-1.61;97.57
17260;BME280;8746;49.230;9.220;2023-03-04T00:56:35;100583.22;;;-1.61;96.87
17260;BME280;8746;49.230;9.220;2023-03-04T00:59:00;100592.72;;;-1.60;97.42
17260;BME280;8746;49.230;9.220;2023-03-04T01:01:25;100592.78;;;-1.57;96.83
17260;BME280;8746;49.230;9.220;2023-03-04T01:03:51;100583.31;;;-1.56;96.73
17260;BME280;8746;49.230;9.220;2023-03-04T01:06:16;100585.84;;;-1.58;96.58
17260;BME280;8746;49.230;9.220;2023-03-04T01:08:41;100592.84;;;-1.54;96.35
17260;BME280;8746;49.230;9.220;2023-03-04T01:11:07;100586.06;;;-1.47;96.13
17260;BME280;8746;49.230;9.220;2023-03-04T01:13:32;100590.41;;;-1.46;95.59
17260;BME280;8746;49.230;9.220;2023-03-04T01:15:58;100593.56;;;-1.61;94.95
17260;BME280;8746;49.230;9.220;2023-03-04T01:18:23;100597.53;;;-1.79;95.57
17260;BME280;8746;49.230;9.220;2023-03-04T01:20:49;100594.84;;;-1.83;96.12
17260;BME280;8746;49.230;9.220;2023-03-04T01:23:14;100592.19;;;-1.86;95.79
17260;BME280;8746;49.230;9.220;2023-03-04T01:25:40;100592.19;;;-1.86;95.71
17260;BME280;8746;49.230;9.220;2023-03-04T01:28:05;100596.28;;;-1.96;95.69
17260;BME280;8746;49.230;9.220;2023-03-04T01:30:30;100584.91;;;-2.04;95.71
17260;BME280;8746;49.230;9.220;2023-03-04T01:32:56;100591.59;;;-2.14;96.43
17260;BME280;8746;49.230;9.220;2023-03-04T01:35:21;100588.03;;;-2.19;96.90
17260;BME280;8746;49.230;9.220;2023-03-04T01:37:47;100586.34;;;-2.19;97.32
17260;BME280;8746;49.230;9.220;2023-03-04T01:40:12;100586.25;;;-2.22;96.74
17260;BME280;8746;49.230;9.220;2023-03-04T01:42:38;100586.34;;;-2.19;96.71
17260;BME280;8746;49.230;9.220;2023-03-04T01:45:05;100583.63;;;-2.25;96.66
17260;BME280;8746;49.230;9.220;2023-03-04T01:47:32;100579.19;;;-2.29;97.40
17260;BME280;8746;49.230;9.220;2023-03-04T01:50:00;100576.59;;;-2.31;98.18
17260;BME280;8746;49.230;9.220;2023-03-04T01:52:26;100577.44;;;-2.30;98.32
17260;BME280;8746;49.230;9.220;2023-03-04T01:54:52;100573.06;;;-2.34;97.30
17260;BME280;8746;49.230;9.220;2023-03-04T01:57:20;100573.72;;;-2.45;97.74
17260;BME280;8746;49.230;9.220;2023-03-04T01:59:47;100576.31;;;-2.43;97.93
17260;BME280;8746;49.230;9.220;2023-03-04T02:02:32;100569.28;;;-2.49;99.26
17260;BME280;8746;49.230;9.220;2023-03-04T02:04:57;100569.38;;;-2.46;99.29
17260;BME280;8746;49.230;9.220;2023-03-04T02:07:22;100568.88;;;-2.29;97.48
17260;BME280;8746;49.230;9.220;2023-03-04T02:09:48;100565.91;;;-2.46;97.13
17260;BME280;8746;49.230;9.220;2023-03-04T02:12:13;100563.97;;;-2.56;98.61
17260;BME280;8746;49.230;9.220;2023-03-04T02:14:38;100563.06;;;-2.57;99.50
17260;BME280;8746;49.230;9.220;2023-03-04T02:17:11;100569.00;;;-2.61;99.46
17260;BME280;8746;49.230;9.220;2023-03-04T02:22:07;100563.06;;;-2.57;99.21
17260;BME280;8746;49.230;9.220;2023-03-04T02:24:44;100564.75;;;-2.59;98.69
17260;BME280;8746;49.230;9.220;2023-03-04T02:27:10;100558.53;;;-2.67;99.10
17260;BME280;8746;49.230;9.220;2023-03-04T02:29:36;100559.16;;;-2.78;100.00
17260;BME280;8746;49.230;9.220;2023-03-04T02:32:01;100552.31;;;-2.76;100.00
17260;BME280;8746;49.230;9.220;2023-03-04T02:34:32;100555.66;;;-2.80;100.00
17260;BME280;8746;49.230;9.220;2023-03-04T02:36:59;100557.47;;;-2.76;100.00
17260;BME280;8746;49.230;9.220;2023-03-04T02:39:36;100550.78;;;-2.67;100.00
17260;BME280;8746;49.230;9.220;2023-03-04T02:42:04;100551.78;;;-2.61;99.53
17260;BME280;8746;49.230;9.220;2023-03-04T02:44:32;100557.97;;;-2.54;98.94
17260;BME280;8746;49.230;9.220;2023-03-04T02:47:00;100557.97;;;-2.55;97.70
17260;BME280;8746;49.230;9.220;2023-03-04T02:49:27;100561.22;;;-2.63;96.79
17260;BME280;8746;49.230;9.220;2023-03-04T02:52:09;100556.03;;;-2.64;97.51
17260;BME280;8746;49.230;9.220;2023-03-04T02:54:37;100558.44;;;-2.70;96.69
17260;BME280;8746;49.230;9.220;2023-03-04T02:57:06;100549.72;;;-2.76;97.03
17260;BME280;8746;49.230;9.220;2023-03-04T02:59:32;100565.31;;;-2.72;96.31
17260;BME280;8746;49.230;9.220;2023-03-04T03:01:57;100562.63;;;-2.76;96.19
17260;BME280;8746;49.230;9.220;2023-03-04T03:04:24;100559.88;;;-2.83;96.42
17260;BME280;8746;49.230;9.220;2023-03-04T03:06:50;100559.06;;;-2.81;96.16
17260;BME280;8746;49.230;9.220;2023-03-04T03:09:16;100562.88;;;-3.01;96.88
17260;BME280;8746;49.230;9.220;2023-03-04T03:11:41;100565.75;;;-2.89;98.40
17260;BME280;8746;49.230;9.220;2023-03-04T03:14:07;100558.53;;;-3.02;99.53
17260;BME280;8746;49.230;9.220;2023-03-04T03:16:33;100564.13;;;-3.20;100.00
17260;BME280;8746;49.230;9.220;2023-03-04T03:18:59;100559.16;;;-3.13;100.00
17260;BME280;8746;49.230;9.220;2023-03-04T03:21:24;100559.00;;;-3.19;100.00
17260;BME280;8746;49.230;9.220;2023-03-04T03:23:49;100558.97;;;-3.20;100.00
17260;BME280;8746;49.230;9.220;2023-03-04T03:26:15;100563.34;;;-3.18;100.00
17260;BME280;8746;49.230;9.220;2023-03-04T03:28:40;100552.91;;;-3.21;100.00
17260;BME280;8746;49.230;9.220;2023-03-04T03:31:06;100554.63;;;-3.22;100.00
17260;BME280;8746;49.230;9.220;2023-03-04T03:33:32;100545.84;;;-3.28;100.00
17260;BME280;8746;49.230;9.220;2023-03-04T03:35:57;100551.84;;;-3.29;100.00
17260;BME280;8746;49.230;9.220;2023-03-04T03:38:24;100552.72;;;-3.29;100.00
17260;BME280;8746;49.230;9.220;2023-03-04T03:40:49;100551.31;;;-3.16;100.00
17260;BME280;8746;49.230;9.220;2023-03-04T03:43:15;100554.81;;;-3.14;100.00
17260;BME280;8746;49.230;9.220;2023-03-04T03:45:40;100563.50;;;-3.12;99.55
17260;BME280;8746;49.230;9.220;2023-03-04T03:48:05;100566.16;;;-3.07;99.37
17260;BME280;8746;49.230;9.220;2023-03-04T03:50:31;100567.84;;;-3.09;98.96
17260;BME280;8746;49.230;9.220;2023-03-04T03:52:57;100566.97;;;-3.10;99.15
17260;BME280;8746;49.230;9.220;2023-03-04T03:55:22;100571.22;;;-3.12;98.88
17260;BME280;8746;49.230;9.220;2023-03-04T03:57:48;100576.34;;;-3.13;98.77
17260;BME280;8746;49.230;9.220;2023-03-04T04:00:14;100574.81;;;-3.05;98.63
17260;BME280;8746;49.230;9.220;2023-03-04T04:02:40;100579.63;;;-3.20;98.76
17260;BME280;8746;49.230;9.220;2023-03-04T04:05:06;100581.81;;;-3.34;98.81
17260;BME280;8746;49.230;9.220;2023-03-04T04:07:32;100581.69;;;-3.39;98.38
17260;BME280;8746;49.230;9.220;2023-03-04T04:09:58;100581.63;;;-3.42;98.33
17260;BME280;8746;49.230;9.220;2023-03-04T04:12:23;100582.97;;;-3.55;99.60
17260;BME280;8746;49.230;9.220;2023-03-04T04:14:49;100588.06;;;-3.58;100.00
17260;BME280;8746;49.230;9.220;2023-03-04T04:17:14;100587.94;;;-3.63;100.00
17260;BME280;8746;49.230;9.220;2023-03-04T04:19:40;100592.22;;;-3.63;100.00
17260;BME280;8746;49.230;9.220;2023-03-04T04:22:07;100601.38;;;-3.73;100.00
17260;BME280;8746;49.230;9.220;2023-03-04T04:24:33;100594.75;;;-3.65;100.00
17260;BME280;8746;49.230;9.220;2023-03-04T04:26:59;100591.81;;;-3.77;99.96
17260;BME280;8746;49.230;9.220;2023-03-04T04:29:25;100587.63;;;-3.74;100.00
17260;BME280;8746;49.230;9.220;2023-03-04T04:31:50;100603.09;;;-3.74;100.00
17260;BME280;8746;49.230;9.220;2023-03-04T04:34:16;100604.16;;;-3.67;100.00
17260;BME280;8746;49.230;9.220;2023-03-04T04:36:41;100593.13;;;-3.61;100.00
17260;BME280;8746;49.230;9.220;2023-03-04T04:39:06;100606.94;;;-3.59;100.00
17260;BME280;8746;49.230;9.220;2023-03-04T04:41:42;100599.69;;;-3.73;99.54
17260;BME280;8746;49.230;9.220;2023-03-04T04:44:08;100603.88;;;-3.76;98.77
17260;BME280;8746;49.230;9.220;2023-03-04T04:46:35;100611.50;;;-3.81;99.98
17260;BME280;8746;49.230;9.220;2023-03-04T04:49:01;100605.88;;;-3.66;99.67
17260;BME280;8746;49.230;9.220;2023-03-04T04:51:27;100608.41;;;-3.69;99.81
17260;BME280;8746;49.230;9.220;2023-03-04T04:53:53;100607.72;;;-3.63;100.00
17260;BME280;8746;49.230;9.220;2023-03-04T04:56:21;100609.91;;;-3.76;100.00
17260;BME280;8746;49.230;9.220;2023-03-04T04:58:47;100615.44;;;-3.63;100.00
17260;BME280;8746;49.230;9.220;2023-03-04T05:01:13;100609.91;;;-3.76;100.00
17260;BME280;8746;49.230;9.220;2023-03-04T05:03:39;100610.94;;;-3.71;99.46
17260;BME280;8746;49.230;9.220;2023-03-04T05:06:06;100615.81;;;-3.80;99.81
17260;BME280;8746;49.230;9.220;2023-03-04T05:08:32;100612.88;;;-3.63;99.68
17260;BME280;8746;49.230;9.220;2023-03-04T05:10:57;100615.84;;;-3.78;100.00
17260;BME280;8746;49.230;9.220;2023-03-04T05:13:23;100612.78;;;-3.95;100.00
17260;BME280;8746;49.230;9.220;2023-03-04T05:15:52;100607.81;;;-3.89;100.00
17260;BME280;8746;49.230;9.220;2023-03-04T05:18:19;100608.78;;;-3.86;100.00
17260;BME280;8746;49.230;9.220;2023-03-04T05:20:49;100609.00;;;-3.78;100.00
17260;BME280;8746;49.230;9.220;2023-03-04T05:23:15;100609.09;;;-3.75;100.00
17260;BME280;8746;49.230;9.220;2023-03-04T05:25:40;100610.94;;;-3.71;100.00
17260;BME280;8746;49.230;9.220;2023-03-04T05:28:05;100599.97;;;-3.63;100.00
17260;BME280;8746;49.230;9.220;2023-03-04T05:30:36;100605.69;;;-3.42;100.00
17260;BME280;8746;49.230;9.220;2023-03-04T05:33:02;100608.91;;;-3.18;100.00
17260;BME280;8746;49.230;9.220;2023-03-04T05:35:27;100609.38;;;-3.00;100.00
17260;BME280;8746;49.230;9.220;2023-03-04T05:37:52;100609.78;;;-2.84;100.00
17260;BME280;8746;49.230;9.220;2023-03-04T05:40:18;100604.88;;;-2.74;99.53
17260;BME280;8746;49.230;9.220;2023-03-04T05:42:43;100609.09;;;-2.77;98.97
17260;BME280;8746;49.230;9.220;2023-03-04T05:45:09;100611.81;;;-2.71;98.62
17260;BME280;8746;49.230;9.220;2023-03-04T05:47:35;100617.78;;;-2.74;98.33
17260;BME280;8746;49.230;9.220;2023-03-04T05:50:00;100616.34;;;-2.62;98.65
17260;BME280;8746;49.230;9.220;2023-03-04T05:52:25;100616.44;;;-2.59;98.73
17260;BME280;8746;49.230;9.220;2023-03-04T05:54:51;100611.25;;;-2.59;99.11
17260;BME280;8746;49.230;9.220;2023-03-04T05:57:16;100613.06;;;-2.55;98.74
17260;BME280;8746;49.230;9.220;2023-03-04T05:59:41;100608.31;;;-2.36;98.33
17260;BME280;8746;49.230;9.220;2023-03-04T06:02:07;100602.88;;;-2.49;98.20
17260;BME280;8746;49.230;9.220;2023-03-04T06:04:32;100613.06;;;-2.55;99.23
17260;BME280;8746;49.230;9.220;2023-03-04T06:06:57;100606.91;;;-2.62;99.81
17260;BME280;8746;49.230;9.220;2023-03-04T06:09:23;100611.81;;;-2.71;100.00
17260;BME280;8746;49.230;9.220;2023-03-04T06:11:48;100612.06;;;-2.62;100.00
17260;BME280;8746;49.230;9.220;2023-03-04T06:14:13;100613.69;;;-2.65;100.00
17260;BME280;8746;49.230;9.220;2023-03-04T06:16:39;100616.19;;;-2.68;100.00
17260;BME280;8746;49.230;9.220;2023-03-04T06:19:04;100617.22;;;-2.62;100.00
17260;BME280;8746;49.230;9.220;2023-03-04T06:21:29;100619.75;;;-2.63;100.00
17260;BME280;8746;49.230;9.220;2023-03-04T06:23:54;100623.41;;;-2.55;100.00
17260;BME280;8746;49.230;9.220;2023-03-04T06:26:20;100626.66;;;-2.62;100.00
17260;BME280;8746;49.230;9.220;2023-03-04T06:28:45;100628.50;;;-2.58;100.00
17260;BME280;8746;49.230;9.220;2023-03-04T06:31:11;100634.78;;;-2.48;100.00
17260;BME280;8746;49.230;9.220;2023-03-04T06:33:36;100634.84;;;-2.45;100.00
17260;BME280;8746;49.230;9.220;2023-03-04T06:36:01;100634.41;;;-2.27;100.00
17260;BME280;8746;49.230;9.220;2023-03-04T06:38:27;100643.09;;;-2.23;100.00
17260;BME280;8746;49.230;9.220;2023-03-04T06:40:53;100650.19;;;-2.15;100.00
17260;BME280;8746;49.230;9.220;2023-03-04T06:43:18;100645.25;;;-2.05;100.00
17260;BME280;8746;49.230;9.220;2023-03-04T06:45:44;100649.78;;;-1.94;100.00
17260;BME280;8746;49.230;9.220;2023-03-04T06:48:10;100643.75;;;-1.94;100.00
17260;BME280;8746;49.230;9.220;2023-03-04T06:50:35;100649.56;;;-1.63;99.74
17260;BME280;8746;49.230;9.220;2023-03-04T06:53:01;100641.06;;;-1.59;99.50
17260;BME280;8746;49.230;9.220;2023-03-04T06:55:26;100637.69;;;-1.53;99.05
17260;BME280;8746;49.230;9.220;2023-03-04T06:57:51;100647.34;;;-1.46;99.11
17260;BME280;8746;49.230;9.220;2023-03-04T07:00:17;100644.00;;;-1.40;99.25
17260;BME280;8746;49.230;9.220;2023-03-04T07:02:43;100642.47;;;-1.31;98.74
17260;BME280;8746;49.230;9.220;2023-03-04T07:05:10;100647.56;;;-1.35;98.98
17260;BME280;8746;49.230;9.220;2023-03-04T07:07:35;100642.63;;;-1.21;98.07
17260;BME280;8746;49.230;9.220;2023-03-04T07:10:01;100648.72;;;-1.21;98.20
17260;BME280;8746;49.230;9.220;2023-03-04T07:12:26;100654.34;;;-0.96;97.02
17260;BME280;8746;49.230;9.220;2023-03-04T07:14:52;100648.47;;;-0.86;96.22
17260;BME280;8746;49.230;9.220;2023-03-04T07:17:17;100657.75;;;-0.97;96.31
17260;BME280;8746;49.230;9.220;2023-03-04T07:19:42;100661.47;;;-0.83;96.67
17260;BME280;8746;49.230;9.220;2023-03-04T07:22:08;100658.88;;;-0.84;96.46
17260;BME280;8746;49.230;9.220;2023-03-04T07:24:34;100658.97;;;-0.79;95.83
17260;BME280;8746;49.230;9.220;2023-03-04T07:26:59;100659.72;;;-0.84;96.09
17260;BME280;8746;49.230;9.220;2023-03-04T07:29:24;100673.53;;;-0.85;96.02
17260;BME280;8746;49.230;9.220;2023-03-04T07:31:50;100666.47;;;-0.92;96.55
17260;BME280;8746;49.230;9.220;2023-03-04T07:34:15;100672.56;;;-0.91;97.30
17260;BME280;8746;49.230;9.220;2023-03-04T07:36:41;100666.59;;;-0.86;96.62
17260;BME280;8746;49.230;9.220;2023-03-04T07:39:07;100668.56;;;-0.72;96.54
17260;BME280;8746;49.230;9.220;2023-03-04T07:41:33;100675.88;;;-0.50;95.45
17260;BME280;8746;49.230;9.220;2023-03-04T07:44:03;100670.59;;;-0.56;95.79
17260;BME280;8746;49.230;9.220;2023-03-04T07:46:28;100680.94;;;-0.56;95.98
17260;BME280;8746;49.230;9.220;2023-03-04T07:48:54;100671.41;;;-0.58;96.18
17260;BME280;8746;49.230;9.220;2023-03-04T07:51:22;100674.22;;;-0.44;95.80
17260;BME280;8746;49.230;9.220;2023-03-04T07:53:50;100677.63;;;-0.49;96.12
17260;BME280;8746;49.230;9.220;2023-03-04T07:56:22;100677.81;;;-0.36;95.22
17260;BME280;8746;49.230;9.220;2023-03-04T07:58:48;100676.25;;;-0.25;95.34
17260;BME280;8746;49.230;9.220;2023-03-04T08:01:16;100676.41;;;-0.15;94.30
17260;BME280;8746;49.230;9.220;2023-03-04T08:03:42;100681.50;;;-0.22;93.92
17260;BME280;8746;49.230;9.220;2023-03-04T08:06:10;100682.63;;;-0.06;93.03
17260;BME280;8746;49.230;9.220;2023-03-04T08:08:37;100690.22;;;-0.17;93.44
17260;BME280;8746;49.230;9.220;2023-03-04T08:11:07;100684.03;;;-0.26;94.62
17260;BME280;8746;49.230;9.220;2023-03-04T08:13:33;100676.59;;;-0.03;93.39
17260;BME280;8746;49.230;9.220;2023-03-04T08:15:58;100681.34;;;-0.31;94.76
17260;BME280;8746;49.230;9.220;2023-03-04T08:18:24;100681.69;;;-0.09;94.47
17260;BME280;8746;49.230;9.220;2023-03-04T08:20:49;100668.06;;;0.04;93.83
17260;BME280;8746;49.230;9.220;2023-03-04T08:23:15;100677.88;;;0.27;93.38
17260;BME280;8746;49.230;9.220;2023-03-04T08:25:41;100676.97;;;0.23;93.10
17260;BME280;8746;49.230;9.220;2023-03-04T08:28:07;100680.47;;;0.27;92.82
17260;BME280;8746;49.230;9.220;2023-03-04T08:30:33;100685.78;;;0.33;92.92
17260;BME280;8746;49.230;9.220;2023-03-04T08:33:01;100685.94;;;0.45;92.47
17260;BME280;8746;49.230;9.220;2023-03-04T08:35:26;100681.94;;;0.72;91.89
17260;BME280;8746;49.230;9.220;2023-03-04T08:37:51;100679.22;;;0.63;91.85
17260;BME280;8746;49.230;9.220;2023-03-04T08:40:17;100677.47;;;0.62;92.06
17260;BME280;8746;49.230;9.220;2023-03-04T08:42:42;100688.00;;;0.73;92.59
17260;BME280;8746;49.230;9.220;2023-03-04T08:45:08;100677.69;;;0.79;91.50
17260;BME280;8746;49.230;9.220;2023-03-04T08:47:34;100679.44;;;0.82;91.48
17260;BME280;8746;49.230;9.220;2023-03-04T08:49:59;100678.59;;;0.84;91.14
17260;BME280;8746;49.230;9.220;2023-03-04T08:52:24;100682.88;;;0.77;91.29
17260;BME280;8746;49.230;9.220;2023-03-04T08:54:50;100677.81;;;0.90;91.47
17260;BME280;8746;49.230;9.220;2023-03-04T08:57:15;100684.75;;;0.94;90.50
17260;BME280;8746;49.230;9.220;2023-03-04T08:59:40;100678.78;;;1.00;90.25
17260;BME280;8746;49.230;9.220;2023-03-04T09:02:06;100677.97;;;1.05;90.74
17260;BME280;8746;49.230;9.220;2023-03-04T09:04:31;100677.03;;;1.00;90.57
17260;BME280;8746;49.230;9.220;2023-03-04T09:06:57;100672.59;;;0.90;91.70
17260;BME280;8746;49.230;9.220;2023-03-04T09:09:22;100673.81;;;1.21;90.25
17260;BME280;8746;49.230;9.220;2023-03-04T09:11:47;100664.34;;;1.30;90.00
17260;BME280;8746;49.230;9.220;2023-03-04T09:14:13;100668.72;;;1.35;89.81
17260;BME280;8746;49.230;9.220;2023-03-04T09:16:38;100671.53;;;1.57;89.13
17260;BME280;8746;49.230;9.220;2023-03-04T09:19:03;100666.31;;;1.57;86.89
17260;BME280;8746;49.230;9.220;2023-03-04T09:21:29;100668.78;;;1.41;88.06
17260;BME280;8746;49.230;9.220;2023-03-04T09:23:54;100667.94;;;1.44;88.17
17260;BME280;8746;49.230;9.220;2023-03-04T09:26:22;100679.84;;;1.19;89.34
17260;BME280;8746;49.230;9.220;2023-03-04T09:28:50;100679.84;;;1.19;89.95
17260;BME280;8746;49.230;9.220;2023-03-04T09:31:15;100678.13;;;1.21;89.71
17260;BME280;8746;49.230;9.220;2023-03-04T09:33:41;100681.63;;;1.26;89.45
17260;BME280;8746;49.230;9.220;2023-03-04T09:36:08;100682.53;;;1.30;88.99
17260;BME280;8746;49.230;9.220;2023-03-04T09:38:34;100677.31;;;1.28;88.61
17260;BME280;8746;49.230;9.220;2023-03-04T09:41:05;100687.84;;;1.40;89.40
17260;BME280;8746;49.230;9.220;2023-03-04T09:43:32;100680.19;;;1.56;89.20
17260;BME280;8746;49.230;9.220;2023-03-04T09:46:01;100680.19;;;1.56;88.26
17260;BME280;8746;49.230;9.220;2023-03-04T09:48:32;100680.19;;;1.59;88.53
17260;BME280;8746;49.230;9.220;2023-03-04T09:51:35;100685.38;;;1.57;87.41
17260;BME280;8746;49.230;9.220;2023-03-04T09:54:17;100678.56;;;1.70;87.62
17260;BME280;8746;49.230;9.220;2023-03-04T09:56:50;100694.22;;;1.76;87.24
17260;BME280;8746;49.230;9.220;2023-03-04T09:59:23;100690.09;;;2.03;87.18
17260;BME280;8746;49.230;9.220;2023-03-04T10:01:53;100687.53;;;2.08;86.63
17260;BME280;8746;49.230;9.220;2023-03-04T10:06:56;100696.25;;;2.22;85.57
17260;BME280;8746;49.230;9.220;2023-03-04T10:09:26;100684.88;;;2.06;84.19
17260;BME280;8746;49.230;9.220;2023-03-04T10:12:05;100688.44;;;2.21;84.78
17260;BME280;8746;49.230;9.220;2023-03-04T10:14:38;100689.31;;;2.18;85.00
17260;BME280;8746;49.230;9.220;2023-03-04T10:17:12;100680.56;;;2.08;84.13
17260;BME280;8746;49.230;9.220;2023-03-04T10:19:51;100673.59;;;2.01;82.11
17260;BME280;8746;49.230;9.220;2023-03-04T10:22:43;100682.38;;;2.20;82.90
17260;BME280;8746;49.230;9.220;2023-03-04T10:25:22;100673.78;;;2.35;82.78
17260;BME280;8746;49.230;9.220;2023-03-04T10:27:53;100676.41;;;2.42;83.19
17260;BME280;8746;49.230;9.220;2023-03-04T10:33:21;100675.53;;;2.39;83.41
17260;BME280;8746;49.230;9.220;2023-03-04T10:35:52;100676.50;;;2.60;83.19
17260;BME280;8746;49.230;9.220;2023-03-04T10:38:21;100675.56;;;2.43;82.75
17260;BME280;8746;49.230;9.220;2023-03-04T10:40:46;100674.53;;;2.19;83.18
17260;BME280;8746;49.230;9.220;2023-03-04T10:43:21;100673.75;;;2.29;84.38
17260;BME280;8746;49.230;9.220;2023-03-04T10:45:47;100667.81;;;2.56;83.42
17260;BME280;8746;49.230;9.220;2023-03-04T10:48:21;100679.81;;;2.28;82.53
17260;BME280;8746;49.230;9.220;2023-03-04T10:50:47;100676.38;;;2.35;81.93
17260;BME280;8746;49.230;9.220;2023-03-04T10:53:39;100667.75;;;2.43;78.61
17260;BME280;8746;49.230;9.220;2023-03-04T11:01:52;100658.28;;;2.63;76.90
17260;BME280;8746;49.230;9.220;2023-03-04T11:04:19;100655.66;;;2.62;77.47
17260;BME280;8746;49.230;9.220;2023-03-04T11:06:47;100660.81;;;2.48;80.12
17260;BME280;8746;49.230;9.220;2023-03-04T11:09:30;100658.16;;;2.35;81.41
17260;BME280;8746;49.230;9.220;2023-03-04T11:12:00;100655.53;;;2.32;81.26
17260;BME280;8746;49.230;9.220;2023-03-04T11:19:58;100647.72;;;2.29;80.90
17260;BME280;8746;49.230;9.220;2023-03-04T11:22:27;100638.28;;;2.59;82.53
17260;BME280;8746;49.230;9.220;2023-03-04T11:24:57;100639.16;;;2.56;81.72
17260;BME280;8746;49.230;9.220;2023-03-04T11:33:32;100635.78;;;2.93;78.99
17260;BME280;8746;49.230;9.220;2023-03-04T11:38:47;100630.59;;;2.90;84.75
17260;BME280;8746;49.230;9.220;2023-03-04T11:41:17;100625.41;;;3.13;80.06
17260;BME280;8746;49.230;9.220;2023-03-04T11:43:45;100630.59;;;3.24;80.69
17260;BME280;8746;49.230;9.220;2023-03-04T11:54:43;100614.94;;;2.99;77.13
17260;BME280;8746;49.230;9.220;2023-03-04T11:57:34;100611.47;;;2.97;77.22
17260;BME280;8746;49.230;9.220;2023-03-04T12:00:33;100606.28;;;3.11;77.08
17260;BME280;8746;49.230;9.220;2023-03-04T12:06:04;100595.88;;;3.28;75.18
17260;BME280;8746;49.230;9.220;2023-03-04T12:14:15;100590.63;;;3.00;76.11
17260;BME280;8746;49.230;9.220;2023-03-04T12:22:07;100584.50;;;2.80;76.04
17260;BME280;8746;49.230;9.220;2023-03-04T12:25:07;100584.50;;;2.80;75.50
17260;BME280;8746;49.230;9.220;2023-03-04T12:30:53;100578.34;;;2.53;76.78
17260;BME280;8746;49.230;9.220;2023-03-04T12:39:27;100561.03;;;2.75;76.08
17260;BME280;8746;49.230;9.220;2023-03-04T12:41:48;100561.06;;;2.97;75.95
17260;BME280;8746;49.230;9.220;2023-03-04T12:44:18;100562.81;;;2.96;74.92
17260;BME280;8746;49.230;9.220;2023-03-04T12:52:43;100550.66;;;2.95;74.12
17260;BME280;8746;49.230;9.220;2023-03-04T12:55:16;100551.50;;;2.91;75.03
17260;BME280;8746;49.230;9.220;2023-03-04T12:57:43;100552.41;;;3.13;75.36
17260;BME280;8746;49.230;9.220;2023-03-04T13:02:52;100548.91;;;2.99;75.04
17260;BME280;8746;49.230;9.220;2023-03-04T13:08:42;100551.53;;;3.19;75.39
17260;BME280;8746;49.230;9.220;2023-03-04T13:16:38;100545.44;;;3.12;73.05
17260;BME280;8746;49.230;9.220;2023-03-04T13:24:51;100543.69;;;3.25;72.87
17260;BME280;8746;49.230;9.220;2023-03-04T13:27:46;100543.69;;;3.13;73.13
17260;BME280;8746;49.230;9.220;2023-03-04T13:32:57;100540.25;;;3.23;73.75
17260;BME280;8746;49.230;9.220;2023-03-04T13:41:22;100536.75;;;3.43;72.99
17260;BME280;8746;49.230;9.220;2023-03-04T13:43:51;100535.00;;;3.15;71.60
17260;BME280;8746;49.230;9.220;2023-03-04T13:48:43;100529.81;;;3.23;72.64
17260;BME280;8746;49.230;9.220;2023-03-04T13:53:47;100531.53;;;3.27;72.32
17260;BME280;8746;49.230;9.220;2023-03-04T13:58:43;100529.78;;;3.21;72.65
17260;BME280;8746;49.230;9.220;2023-03-04T14:01:27;100524.56;;;3.26;72.87
17260;BME280;8746;49.230;9.220;2023-03-04T14:03:54;100521.09;;;3.23;71.70
17260;BME280;8746;49.230;9.220;2023-03-04T14:06:25;100521.97;;;3.25;71.83
17260;BME280;8746;49.230;9.220;2023-03-04T14:08:53;100519.34;;;3.26;71.91
17260;BME280;8746;49.230;9.220;2023-03-04T14:11:34;100521.09;;;3.24;71.82
17260;BME280;8746;49.230;9.220;2023-03-04T14:14:04;100514.13;;;3.32;72.12
17260;BME280;8746;49.230;9.220;2023-03-04T14:16:36;100512.38;;;3.44;71.54
17260;BME280;8746;49.230;9.220;2023-03-04T14:19:05;100505.44;;;3.40;71.56
17260;BME280;8746;49.230;9.220;2023-03-04T14:21:31;100500.25;;;3.36;71.05
17260;BME280;8746;49.230;9.220;2023-03-04T14:24:05;100499.38;;;3.22;71.64
17260;BME280;8746;49.230;9.220;2023-03-04T14:26:31;100496.78;;;3.22;72.02
17260;BME280;8746;49.230;9.220;2023-03-04T14:28:57;100502.00;;;3.27;70.73
17260;BME280;8746;49.230;9.220;2023-03-04T14:31:26;100494.16;;;3.39;71.60
17260;BME280;8746;49.230;9.220;2023-03-04T14:33:55;100492.41;;;3.43;71.95
17260;BME280;8746;49.230;9.220;2023-03-04T14:36:24;100497.63;;;3.18;72.03
17260;BME280;8746;49.230;9.220;2023-03-04T14:38:52;100486.34;;;3.24;72.43
17260;BME280;8746;49.230;9.220;2023-03-04T14:41:38;100490.69;;;3.31;71.26
17260;BME280;8746;49.230;9.220;2023-03-04T14:44:26;100483.75;;;3.13;71.77